Time;durP1;ratioP1;P1;durP2;ratioP2;P2;SDS_P1;SDS_P2;PMS_P1;PMS_P2;Temp;Humidity;BMP_temperature;BMP_pressure;BME280_temperature;BME280_humidity;BME280_pressure;Samples;Min_cycle;Max_cycle;Signal;HPM_P1;HPM_P2
2023/05/20 00:45:21;;;;;;;9.90;7.50;;;;;;;16.61;100.00;101319.06;106517;1257;67828;-86
2023/05/20 00:48:09;;;;;;;13.30;7.50;;;;;;;16.57;100.00;101318.91;106490;1257;72482;-80
2023/05/20 00:50:57;;;;;;;13.00;7.20;;;;;;;16.49;100.00;101319.70;106398;1254;62911;-86
2023/05/20 00:53:45;;;;;;;10.60;7.40;;;;;;;16.39;100.00;101319.23;106360;1256;60004;-80
2023/05/20 00:56:34;;;;;;;10.90;7.10;;;;;;;16.45;100.00;101319.92;106403;1256;74162;-80
2023/05/20 00:59:22;;;;;;;10.00;7.20;;;;;;;16.44;100.00;101320.42;106394;1254;69490;-80
2023/05/20 01:02:10;;;;;;;10.40;7.80;;;;;;;16.34;100.00;101317.54;106428;1256;72663;-85
2023/05/20 01:04:58;;;;;;;12.90;7.90;;;;;;;16.24;100.00;101317.22;106357;1254;61475;-80
2023/05/20 01:07:47;;;;;;;11.40;8.30;;;;;;;16.30;100.00;101320.02;106307;1255;59655;-86
2023/05/20 01:10:36;;;;;;;13.70;7.60;;;;;;;16.17;100.00;101321.46;106382;1256;74067;-82
2023/05/20 01:13:27;;;;;;;11.40;7.60;;;;;;;16.20;100.00;101318.11;106448;1253;70077;-80
2023/05/20 01:16:16;;;;;;;13.60;7.90;;;;;;;16.23;100.00;101316.70;106231;1253;73779;-85
2023/05/20 01:19:07;;;;;;;12.90;7.80;;;;;;;16.24;100.00;101313.71;106486;1256;61537;-80
2023/05/20 01:21:55;;;;;;;10.60;7.80;;;;;;;16.23;100.00;101314.27;106304;1254;59963;-80
2023/05/20 01:24:44;;;;;;;10.10;7.10;;;;;;;16.24;100.00;101311.16;106416;1256;74059;-86
2023/05/20 01:27:32;;;;;;;13.90;8.70;;;;;;;16.18;100.00;101311.04;106264;1254;68178;-80
2023/05/20 01:30:20;;;;;;;12.90;8.20;;;;;;;16.07;100.00;101314.75;106466;1253;73665;-84
2023/05/20 01:33:10;;;;;;;12.50;7.60;;;;;;;16.08;100.00;101312.25;106488;1254;61168;-80
2023/05/20 01:35:58;;;;;;;12.80;8.10;;;;;;;16.02;100.00;101312.99;106265;1253;60360;-86
2023/05/20 01:38:46;;;;;;;15.80;8.30;;;;;;;16.07;100.00;101309.23;106348;1252;73913;-86
2023/05/20 01:41:34;;;;;;;12.40;8.50;;;;;;;16.11;100.00;101307.15;106297;1255;68495;-86
2023/05/20 01:44:22;;;;;;;11.70;7.80;;;;;;;16.12;100.00;101307.85;106279;1253;73352;-81
2023/05/20 01:47:12;;;;;;;12.20;8.00;;;;;;;16.16;100.00;101307.23;106308;1256;63208;-81
2023/05/20 01:50:00;;;;;;;13.40;7.90;;;;;;;16.22;100.00;101309.27;106437;1254;61330;-81
2023/05/20 01:52:48;;;;;;;10.60;7.50;;;;;;;16.27;100.00;101312.44;106384;1256;73915;-81
2023/05/20 01:55:36;;;;;;;13.60;8.40;;;;;;;16.24;100.00;101315.02;106348;1254;69901;-81
2023/05/20 01:58:25;;;;;;;12.40;8.30;;;;;;;16.17;100.00;101317.12;106310;1259;72633;-81
2023/05/20 02:01:13;;;;;;;9.70;8.00;;;;;;;16.11;100.00;101322.77;106313;1254;60408;-81
2023/05/20 02:04:03;;;;;;;12.20;8.10;;;;;;;16.08;100.00;101320.98;106252;1257;60135;-81
2023/05/20 02:06:51;;;;;;;15.70;8.10;;;;;;;16.02;100.00;101319.83;106341;1254;73915;-83
2023/05/20 02:09:39;;;;;;;13.90;7.90;;;;;;;16.06;100.00;101317.74;106173;1253;69694;-81
2023/05/20 02:12:27;;;;;;;10.90;7.80;;;;;;;16.05;100.00;101315.88;106463;1254;72799;-81
2023/05/20 02:15:18;;;;;;;11.00;7.90;;;;;;;16.16;100.00;101324.84;106397;1254;62917;-87
2023/05/20 02:18:07;;;;;;;11.30;7.80;;;;;;;16.15;100.00;101322.91;106342;1256;60400;-81
2023/05/20 02:20:55;;;;;;;12.20;7.40;;;;;;;16.12;100.00;101328.02;106415;1257;71974;-81
2023/05/20 02:23:43;;;;;;;13.00;9.20;;;;;;;16.13;100.00;101326.75;106382;1256;67789;-81
2023/05/20 02:26:31;;;;;;;10.60;7.80;;;;;;;16.25;100.00;101332.77;106374;1256;74072;-86
2023/05/20 02:29:20;;;;;;;14.90;8.10;;;;;;;16.34;100.00;101327.75;106335;1254;60673;-86
2023/05/20 02:32:11;;;;;;;10.80;7.80;;;;;;;16.36;100.00;101329.83;106349;1254;61437;-87
2023/05/20 02:34:59;;;;;;;11.60;7.70;;;;;;;16.53;100.00;101332.88;106479;1254;73314;-81
2023/05/20 02:37:48;;;;;;;10.10;6.90;;;;;;;16.83;100.00;101333.34;106347;1254;69054;-81
2023/05/20 02:40:36;;;;;;;11.20;7.90;;;;;;;17.09;100.00;101333.36;106349;1254;72607;-81
2023/05/20 02:43:25;;;;;;;13.70;7.80;;;;;;;17.40;100.00;101332.66;106528;1256;61951;-86
2023/05/20 02:46:14;;;;;;;10.10;7.30;;;;;;;17.61;100.00;101333.15;106429;1254;60609;-81
2023/05/20 02:49:02;;;;;;;9.60;7.00;;;;;;;17.80;100.00;101330.27;106381;1254;73137;-85
2023/05/20 02:51:51;;;;;;;11.60;6.90;;;;;;;17.88;100.00;101326.92;106446;1253;69921;-81
2023/05/20 02:54:39;;;;;;;11.70;7.60;;;;;;;17.95;100.00;101326.66;106259;1254;74268;-81
2023/05/20 02:57:28;;;;;;;12.80;7.50;;;;;;;18.06;100.00;101327.82;106254;1254;62978;-86
2023/05/20 03:00:17;;;;;;;8.60;6.30;;;;;;;18.21;100.00;101328.67;106453;1252;61585;-81
2023/05/20 03:03:06;;;;;;;11.40;7.40;;;;;;;18.27;100.00;101330.25;106441;1255;74808;-81
2023/05/20 03:05:54;;;;;;;11.60;6.90;;;;;;;18.39;100.00;101334.74;106459;1254;69961;-86
2023/05/20 03:08:44;;;;;;;12.00;7.20;;;;;;;18.54;100.00;101334.98;106444;1254;73316;-86
2023/05/20 03:11:32;;;;;;;9.50;6.60;;;;;;;18.65;100.00;101332.66;106383;1254;62076;-81
2023/05/20 03:14:20;;;;;;;10.80;7.00;;;;;;;18.76;100.00;101334.19;106306;1254;60427;-81
2023/05/20 03:17:08;;;;;;;10.40;7.60;;;;;;;18.82;100.00;101333.00;106274;1254;74958;-87
2023/05/20 03:19:56;;;;;;;11.00;6.50;;;;;;;18.95;100.00;101333.80;106396;1256;68569;-81
2023/05/20 03:22:45;;;;;;;10.60;6.30;;;;;;;19.02;100.00;101336.50;106444;1256;73692;-86
2023/05/20 03:25:34;;;;;;;8.90;6.10;;;;;;;19.10;100.00;101340.58;106301;1256;62452;-86
2023/05/20 03:28:23;;;;;;;10.10;6.90;;;;;;;19.19;100.00;101340.23;106253;1254;60272;-81
2023/05/20 03:31:11;;;;;;;7.80;6.10;;;;;;;19.27;100.00;101339.30;106348;1254;73633;-81
2023/05/20 03:33:59;;;;;;;12.20;6.50;;;;;;;19.33;100.00;101340.09;106451;1254;69492;-86
2023/05/20 03:36:47;;;;;;;11.40;6.80;;;;;;;19.39;100.00;101336.96;106336;1259;72310;-86
2023/05/20 03:39:35;;;;;;;8.10;6.00;;;;;;;19.47;100.00;101337.14;106363;1254;62844;-81
2023/05/20 03:42:24;;;;;;;11.20;7.80;;;;;;;19.57;100.00;101337.29;106398;1252;61456;-81
2023/05/20 03:45:12;;;;;;;10.60;6.50;;;;;;;19.73;100.00;101341.17;106231;1254;74336;-86
2023/05/20 03:48:06;;;;;;;12.70;6.80;;;;;;;19.80;100.00;101339.77;106606;1254;69630;-81
2023/05/20 03:50:55;;;;;;;13.30;6.70;;;;;;;19.80;100.00;101338.49;106351;1256;72355;-86
2023/05/20 03:53:43;;;;;;;8.20;6.50;;;;;;;19.90;100.00;101342.02;106340;1251;61545;-85
2023/05/20 03:56:31;;;;;;;9.10;6.50;;;;;;;20.05;100.00;101342.76;106298;1253;61317;-81
2023/05/20 03:59:21;;;;;;;10.40;7.10;;;;;;;20.17;100.00;101351.35;106374;1254;72811;-81
2023/05/20 04:02:09;;;;;;;9.60;6.70;;;;;;;20.22;100.00;101356.48;106235;1254;68460;-82
2023/05/20 04:04:57;;;;;;;11.30;6.20;;;;;;;20.39;100.00;101351.13;106357;1253;71684;-81
2023/05/20 04:07:45;;;;;;;9.80;7.00;;;;;;;20.40;100.00;101352.83;106400;1255;60827;-82
2023/05/20 04:10:34;;;;;;;10.80;7.30;;;;;;;20.54;100.00;101351.45;106314;1254;61484;-81
2023/05/20 04:13:24;;;;;;;10.00;6.30;;;;;;;20.69;100.00;101350.17;106452;1253;75049;-81
2023/05/20 04:16:12;;;;;;;10.20;6.90;;;;;;;20.83;100.00;101357.39;106303;1254;70429;-87
2023/05/20 04:19:01;;;;;;;12.50;6.70;;;;;;;20.87;100.00;101351.61;106430;1256;73707;-82
2023/05/20 04:21:49;;;;;;;11.90;7.90;;;;;;;21.01;100.00;101352.27;106374;1254;60472;-82
2023/05/20 04:24:37;;;;;;;8.60;5.80;;;;;;;20.96;100.00;101353.61;106382;1255;61218;-82
2023/05/20 04:27:25;;;;;;;10.20;6.40;;;;;;;21.06;100.00;101354.48;106320;1256;73734;-86
2023/05/20 04:30:15;;;;;;;9.00;6.30;;;;;;;21.25;100.00;101356.96;106430;1256;68493;-86
2023/05/20 04:33:04;;;;;;;10.30;6.30;;;;;;;21.32;100.00;101364.99;106360;1254;72161;-86
2023/05/20 04:35:52;;;;;;;10.40;6.70;;;;;;;21.39;100.00;101365.23;106285;1254;63380;-87
2023/05/20 04:38:41;;;;;;;10.30;7.00;;;;;;;21.46;100.00;101363.64;106398;1254;60536;-81
2023/05/20 04:41:29;;;;;;;9.00;6.50;;;;;;;21.39;100.00;101368.73;106377;1257;74937;-81
2023/05/20 04:44:17;;;;;;;8.20;6.30;;;;;;;21.43;100.00;101370.42;106325;1256;69696;-86
2023/05/20 04:47:06;;;;;;;9.60;6.60;;;;;;;21.43;100.00;101370.89;106198;1259;72446;-87
2023/05/20 04:49:57;;;;;;;11.10;6.90;;;;;;;21.56;100.00;101369.55;106446;1254;61436;-81
2023/05/20 04:52:45;;;;;;;13.00;6.70;;;;;;;21.59;100.00;101370.63;106399;1257;60425;-82
2023/05/20 04:55:33;;;;;;;9.70;6.00;;;;;;;21.67;100.00;101366.77;106289;1255;73829;-82
2023/05/20 04:58:25;;;;;;;9.20;6.20;;;;;;;21.76;100.00;101366.51;106398;1257;69788;-86
2023/05/20 05:01:13;;;;;;;9.40;6.50;;;;;;;21.89;100.00;101368.77;106416;1257;73690;-82
2023/05/20 05:04:02;;;;;;;15.30;6.50;;;;;;;21.96;100.00;101368.09;106376;1254;60473;-85
2023/05/20 05:06:50;;;;;;;11.60;6.40;;;;;;;22.01;100.00;101367.75;106215;1259;60586;-86
2023/05/20 05:09:38;;;;;;;10.20;6.10;;;;;;;22.06;100.00;101370.73;106213;1253;73874;-81
2023/05/20 05:12:26;;;;;;;9.30;6.20;;;;;;;22.26;100.00;101371.13;106292;1256;68667;-87
2023/05/20 05:15:15;;;;;;;8.20;5.70;;;;;;;22.29;100.00;101374.04;106486;1257;74204;-86
2023/05/20 05:18:03;;;;;;;10.80;6.30;;;;;;;22.33;100.00;101374.17;106404;1254;60385;-82
2023/05/20 05:21:03;;;;;;;11.40;6.50;;;;;;;22.52;100.00;101368.64;106476;1254;60547;-81
2023/05/20 05:23:50;;;;;;;9.50;6.00;;;;;;;22.73;100.00;101372.55;106421;1257;75079;-86
2023/05/20 05:26:39;;;;;;;10.10;6.00;;;;;;;22.91;100.00;101371.46;106281;1254;69151;-86
2023/05/20 05:29:27;;;;;;;10.50;6.70;;;;;;;23.00;100.00;101375.18;106425;1254;74039;-87
2023/05/20 05:32:15;;;;;;;8.10;5.90;;;;;;;23.02;100.00;101377.27;106346;1254;62862;-87
2023/05/20 05:35:04;;;;;;;8.10;5.80;;;;;;;23.12;100.00;101382.96;106253;1254;61220;-82
2023/05/20 05:37:55;;;;;;;10.20;6.30;;;;;;;23.20;100.00;101381.39;106415;1252;74696;-86
2023/05/20 05:40:44;;;;;;;10.40;7.10;;;;;;;23.26;100.00;101383.27;106351;1257;67951;-86
2023/05/20 05:43:32;;;;;;;10.10;5.70;;;;;;;23.38;100.00;101383.31;106220;1254;72706;-86
2023/05/20 05:46:20;;;;;;;8.20;6.30;;;;;;;23.39;100.00;101376.35;106207;1256;61435;-82
2023/05/20 05:49:08;;;;;;;9.30;6.20;;;;;;;23.39;100.00;101378.34;106305;1252;60475;-87
2023/05/20 05:51:57;;;;;;;8.30;5.90;;;;;;;23.44;100.00;101380.66;106205;1253;73924;-82
2023/05/20 05:54:45;;;;;;;6.80;5.40;;;;;;;23.65;100.00;101379.64;106344;1257;70501;-82
2023/05/20 05:57:33;;;;;;;9.80;5.90;;;;;;;23.76;100.00;101375.96;106339;1256;73773;-82
2023/05/20 06:00:22;;;;;;;9.30;5.60;;;;;;;23.83;100.00;101376.40;106470;1256;60626;-87
2023/05/20 06:03:10;;;;;;;9.20;6.20;;;;;;;24.15;100.00;101378.22;106444;1257;61537;-82
2023/05/20 06:05:58;;;;;;;9.80;6.10;;;;;;;24.40;100.00;101367.12;106415;1254;74969;-81
2023/05/20 06:08:46;;;;;;;12.20;6.10;;;;;;;24.47;100.00;101365.14;106435;1257;69848;-81
2023/05/20 06:11:36;;;;;;;6.90;5.40;;;;;;;24.57;100.00;101366.47;106488;1260;73650;-87
2023/05/20 06:14:24;;;;;;;8.10;6.10;;;;;;;24.81;100.00;101366.79;106343;1257;61355;-82
2023/05/20 06:17:12;;;;;;;7.60;5.70;;;;;;;25.05;100.00;101367.48;106300;1254;61549;-85
2023/05/20 06:20:02;;;;;;;9.20;6.30;;;;;;;25.21;100.00;101372.42;106407;1256;66189;-86
2023/05/20 06:22:50;;;;;;;10.50;5.80;;;;;;;25.30;100.00;101369.64;106316;1259;68506;-87
2023/05/20 06:25:39;;;;;;;8.20;6.00;;;;;;;25.41;100.00;101370.58;106282;1258;72644;-81
2023/05/20 06:28:29;;;;;;;9.30;5.40;;;;;;;25.58;100.00;101369.34;106631;1257;61446;-81
2023/05/20 06:31:18;;;;;;;8.80;5.60;;;;;;;25.65;100.00;101368.33;106299;1260;60530;-87
2023/05/20 06:34:06;;;;;;;9.50;5.50;;;;;;;25.90;100.00;101370.11;106343;1259;65975;-87
2023/05/20 06:36:54;;;;;;;8.90;5.70;;;;;;;26.09;99.88;101372.35;106421;1257;60533;-81
2023/05/20 06:39:42;;;;;;;9.80;5.50;;;;;;;26.13;97.45;101371.41;106260;1254;65076;-81
2023/05/20 06:42:31;;;;;;;7.70;5.20;;;;;;;26.16;99.66;101366.59;106175;1259;60363;-87
2023/05/20 06:45:23;;;;;;;;;;;;;;;26.32;99.74;101360.56;106476;1256;61063;-81
2023/05/20 06:48:16;;;;;;;7.90;5.10;;;;;;;26.52;95.64;101360.23;106464;1253;66945;-87
2023/05/20 06:51:08;;;;;;;6.90;5.60;;;;;;;26.57;90.88;101359.89;106379;1255;60904;-87
2023/05/20 06:53:56;;;;;;;9.10;5.50;;;;;;;26.65;88.45;101359.09;106287;1259;63777;-88
2023/05/20 06:56:44;;;;;;;9.30;6.00;;;;;;;26.67;88.80;101359.13;106315;1257;60526;-82
2023/05/20 06:59:32;;;;;;;7.00;5.50;;;;;;;26.63;90.73;101363.69;106289;1254;60654;-87
2023/05/20 07:02:21;;;;;;;8.70;5.20;;;;;;;26.77;89.26;101367.34;106476;1254;65013;-87
2023/05/20 07:05:09;;;;;;;6.30;5.30;;;;;;;26.96;88.53;101366.30;106507;1256;60496;-87
2023/05/20 07:07:57;;;;;;;6.90;5.50;;;;;;;27.11;85.17;101367.15;106397;1259;63789;-82
2023/05/20 07:10:45;;;;;;;7.50;5.40;;;;;;;27.16;84.39;101372.64;106314;1256;60450;-87
2023/05/20 07:13:36;;;;;;;8.30;5.30;;;;;;;27.21;80.36;101376.93;106480;1254;60546;-82
2023/05/20 07:16:25;;;;;;;7.50;5.10;;;;;;;27.12;77.83;101374.80;106350;1254;66140;-86
2023/05/20 07:19:15;;;;;;;8.40;5.70;;;;;;;27.11;78.86;101373.73;106811;1254;61380;-82
2023/05/20 07:22:04;;;;;;;9.10;5.20;;;;;;;27.05;77.95;101374.09;106483;1255;65114;-81
2023/05/20 07:24:56;;;;;;;7.90;5.60;;;;;;;26.99;80.69;101368.79;106477;1256;60029;-82
2023/05/20 07:27:45;;;;;;;8.00;5.90;;;;;;;27.07;80.58;101366.77;106328;1255;60484;-81
2023/05/20 07:30:33;;;;;;;6.80;5.10;;;;;;;27.15;77.20;101365.07;106472;1257;65909;-82
2023/05/20 07:33:38;;;;;;;10.10;5.50;;;;;;;27.07;78.30;101359.63;106507;1256;60246;-82
2023/05/20 07:36:26;;;;;;;8.40;5.80;;;;;;;27.03;80.13;101356.51;106455;1256;65048;-87
2023/05/20 07:39:14;;;;;;;8.90;5.50;;;;;;;27.06;80.03;101354.16;106505;1255;60371;-82
2023/05/20 07:42:03;;;;;;;8.40;5.20;;;;;;;27.23;79.04;101353.38;106253;1254;60335;-82
2023/05/20 07:44:51;;;;;;;8.40;5.20;;;;;;;27.40;75.89;101353.80;106314;1254;64902;-87
2023/05/20 07:47:39;;;;;;;9.00;5.60;;;;;;;27.58;80.20;101353.23;106324;1254;61000;-83
2023/05/20 07:50:28;;;;;;;8.70;5.50;;;;;;;27.80;77.25;101354.25;106244;1254;65675;-82
2023/05/20 07:53:17;;;;;;;10.90;6.40;;;;;;;27.91;72.75;101358.41;106402;1257;60543;-88
2023/05/20 07:56:05;;;;;;;7.70;5.30;;;;;;;27.84;70.63;101358.04;106398;1257;60427;-87
2023/05/20 07:58:55;;;;;;;7.90;5.30;;;;;;;27.80;73.80;101358.91;106311;1252;65214;-87
2023/05/20 08:01:45;;;;;;;8.90;5.50;;;;;;;27.92;74.42;101356.00;106410;1256;60916;-82
2023/05/20 08:04:35;;;;;;;7.50;4.70;;;;;;;28.18;72.03;101349.67;106387;1254;64802;-87
2023/05/20 08:07:23;;;;;;;8.30;4.80;;;;;;;28.42;71.82;101344.08;106558;1257;60383;-87
2023/05/20 08:10:13;;;;;;;6.30;5.40;;;;;;;28.55;70.83;101344.70;106414;1254;60515;-82
2023/05/20 08:13:02;;;;;;;7.10;4.50;;;;;;;28.61;64.69;101342.98;106424;1251;65076;-82
2023/05/20 08:15:54;;;;;;;12.40;5.60;;;;;;;28.57;64.11;101341.02;106303;1254;60914;-82
2023/05/20 08:18:43;;;;;;;;;;;;;;;28.54;64.97;101346.27;106427;1256;64842;-82
2023/05/20 08:21:34;;;;;;;10.40;4.80;;;;;;;28.65;63.71;101347.23;106472;1256;60328;-87
2023/05/20 08:24:22;;;;;;;9.20;4.70;;;;;;;28.83;61.04;101352.83;106243;1254;59572;-87
2023/05/20 08:27:10;;;;;;;8.40;4.50;;;;;;;28.79;59.68;101352.38;106441;1259;64999;-82
2023/05/20 08:29:58;;;;;;;6.00;4.20;;;;;;;28.71;61.36;101352.14;106381;1254;60916;-81
2023/05/20 08:32:48;;;;;;;11.00;4.60;;;;;;;28.84;60.51;101348.42;106384;1256;65149;-82
2023/05/20 08:35:38;;;;;;;8.80;4.40;;;;;;;28.94;60.38;101349.52;106283;1253;60305;-82
2023/05/20 08:38:26;;;;;;;10.50;4.30;;;;;;;29.04;57.93;101351.59;106473;1251;60466;-83
2023/05/20 08:41:14;;;;;;;9.10;4.30;;;;;;;28.95;55.81;101348.81;106331;1257;66433;-87
2023/05/20 08:44:03;;;;;;;8.10;4.10;;;;;;;28.95;56.74;101351.05;106424;1254;61117;-87
2023/05/20 08:46:52;;;;;;;8.00;4.40;;;;;;;29.07;55.72;101345.09;106539;1257;64534;-87
2023/05/20 08:49:41;;;;;;;5.80;4.20;;;;;;;29.23;55.77;101348.33;106229;1253;60516;-87
2023/05/20 08:52:29;;;;;;;5.90;4.50;;;;;;;29.33;54.39;101347.88;106530;1256;60434;-87
2023/05/20 08:55:22;;;;;;;7.10;4.10;;;;;;;29.31;52.36;101350.59;106500;1251;65005;-87
2023/05/20 08:58:10;;;;;;;6.80;4.00;;;;;;;29.17;53.59;101352.61;106575;1251;60916;-87
2023/05/20 09:00:58;;;;;;;5.00;4.30;;;;;;;29.24;54.92;101352.29;106000;1254;64087;-87
2023/05/20 09:03:46;;;;;;;5.40;4.00;;;;;;;29.52;53.81;101352.34;106515;1254;60423;-88
2023/05/20 09:06:45;;;;;;;5.50;4.70;;;;;;;29.78;53.27;101355.56;106671;1256;60356;-88
2023/05/20 09:09:34;;;;;;;5.80;4.20;;;;;;;30.00;52.04;101348.56;106538;1257;66745;-87
2023/05/20 09:12:22;;;;;;;5.90;4.40;;;;;;;30.28;51.12;101349.02;106490;1254;61032;-87
2023/05/20 09:15:10;;;;;;;6.60;3.60;;;;;;;30.39;50.10;101346.36;106513;1253;63853;-86
2023/05/20 09:18:02;;;;;;;5.70;3.70;;;;;;;30.27;50.11;101344.20;106545;1253;60424;-86
2023/05/20 09:20:54;;;;;;;7.80;3.60;;;;;;;30.21;47.40;101345.90;106524;1253;62516;-87
2023/05/20 09:23:47;;;;;;;6.70;3.60;;;;;;;29.93;48.01;101351.02;106580;1256;64993;-87
2023/05/20 09:26:35;;;;;;;7.00;4.10;;;;;;;29.89;49.96;101353.64;106545;1256;61806;-85
2023/05/20 09:29:24;;;;;;;6.20;3.80;;;;;;;29.86;49.87;101348.31;106297;1257;63789;-86
2023/05/20 09:32:12;;;;;;;4.40;3.70;;;;;;;29.65;49.38;101347.05;106512;1257;59221;-88
2023/05/20 09:35:03;;;;;;;5.50;3.90;;;;;;;29.59;50.88;101342.34;106417;1256;60325;-86
2023/05/20 09:37:53;;;;;;;6.70;3.90;;;;;;;29.71;51.67;101343.27;106515;1254;66062;-86
2023/05/20 09:40:41;;;;;;;7.60;3.80;;;;;;;29.59;50.13;101342.59;106595;1253;60358;-87
2023/05/20 09:43:29;;;;;;;6.40;4.30;;;;;;;29.51;49.68;101340.81;106569;1254;65024;-86
2023/05/20 09:46:17;;;;;;;4.70;3.60;;;;;;;29.42;48.82;101339.77;106397;1257;60813;-86
2023/05/20 09:49:06;;;;;;;9.60;4.50;;;;;;;29.48;50.45;101329.69;106366;1254;59355;-86
2023/05/20 09:51:55;;;;;;;6.00;4.60;;;;;;;29.62;52.32;101328.36;106499;1257;65995;-87
2023/05/20 09:54:44;;;;;;;8.50;4.80;;;;;;;30.09;49.74;101325.45;106620;1253;60692;-86
2023/05/20 09:57:36;;;;;;;6.20;4.60;;;;;;;30.28;46.75;101324.72;106486;1254;63736;-86
2023/05/20 10:00:24;;;;;;;8.50;4.80;;;;;;;30.34;46.02;101317.83;106443;1254;60331;-86
2023/05/20 10:03:12;;;;;;;6.90;4.60;;;;;;;30.59;46.45;101313.98;106409;1257;60441;-86
2023/05/20 10:06:33;;;;;;;4.60;4.20;;;;;;;30.78;45.93;101311.17;106427;1254;66107;-86
2023/05/20 10:09:39;;;;;;;7.80;4.40;;;;;;;30.74;43.25;101309.64;106472;1254;61022;-85
2023/05/20 10:12:59;;;;;;;8.90;4.30;;;;;;;30.65;42.74;101312.33;106805;1254;64884;-86
